createdAt,value
2019-05-10T00:00:23.530Z,8.53
2019-05-10T00:05:45.319Z,8.20
2019-05-10T00:10:50.447Z,7.42
2019-05-10T00:15:54.040Z,8.08
2019-05-10T00:20:57.652Z,8.30
2019-05-10T00:26:01.206Z,8.03
2019-05-10T00:31:04.902Z,7.37
2019-05-10T00:36:08.454Z,7.40
2019-05-10T00:41:12.055Z,6.80
2019-05-10T00:46:15.614Z,7.65
2019-05-10T00:51:19.227Z,7.55
2019-05-10T00:56:22.764Z,7.67
2019-05-10T01:01:26.358Z,7.53
2019-05-10T01:06:29.914Z,7.37
2019-05-10T01:11:33.511Z,7.25
2019-05-10T01:16:37.061Z,7.37
2019-05-10T01:21:40.658Z,7.33
2019-05-10T01:26:44.754Z,7.05
2019-05-10T01:31:48.318Z,5.45
2019-05-10T01:36:51.902Z,6.15
2019-05-10T01:41:55.488Z,6.08
2019-05-10T01:46:59.045Z,6.90
2019-05-10T01:52:02.624Z,6.75
2019-05-10T01:57:06.219Z,6.33
2019-05-10T02:02:09.847Z,7.27
2019-05-10T02:07:13.415Z,6.90
2019-05-10T02:12:16.983Z,7.53
2019-05-10T02:17:20.552Z,7.28
2019-05-10T02:22:24.224Z,7.00
2019-05-10T02:27:27.809Z,7.60
2019-05-10T02:32:31.395Z,8.15
2019-05-10T02:37:35.142Z,7.78
2019-05-10T02:42:38.728Z,7.97
2019-05-10T02:47:42.301Z,7.53
2019-05-10T02:52:45.876Z,9.13
2019-05-10T02:57:49.475Z,13.83
2019-05-10T03:02:53.077Z,12.45
2019-05-10T03:07:57.037Z,8.95
2019-05-10T03:13:01.799Z,8.60
2019-05-10T03:18:06.039Z,7.87
2019-05-10T03:23:10.578Z,7.53
2019-05-10T03:28:14.146Z,6.83
2019-05-10T03:33:17.726Z,7.40
2019-05-10T03:38:21.344Z,7.60
2019-05-10T03:43:24.911Z,6.73
2019-05-10T03:48:28.487Z,7.50
2019-05-10T03:53:32.038Z,7.72
2019-05-10T03:58:35.615Z,7.28
2019-05-10T04:03:39.665Z,6.83
2019-05-10T04:08:43.227Z,6.72
2019-05-10T04:13:46.824Z,6.60
2019-05-10T04:18:50.379Z,6.22
2019-05-10T04:23:53.996Z,6.30
2019-05-10T04:28:57.530Z,6.35
2019-05-10T04:34:01.118Z,6.43
2019-05-10T04:39:06.556Z,6.25
2019-05-10T04:44:10.125Z,6.25
2019-05-10T04:49:13.734Z,5.90
2019-05-10T04:54:17.274Z,5.90
2019-05-10T04:59:20.835Z,6.65
2019-05-10T05:04:24.429Z,6.85
2019-05-10T05:09:27.983Z,7.17
2019-05-10T05:14:31.544Z,7.22
2019-05-10T05:19:35.154Z,6.67
2019-05-10T05:24:38.701Z,7.05
2019-05-10T05:29:42.310Z,7.72
2019-05-10T05:34:45.871Z,6.80
2019-05-10T05:39:49.452Z,7.30
2019-05-10T05:44:53.003Z,7.50
2019-05-10T05:49:56.603Z,7.17
2019-05-10T05:55:00.146Z,7.20
2019-05-10T06:00:06.668Z,6.72
2019-05-10T06:05:10.209Z,6.20
2019-05-10T06:10:16.921Z,6.20
2019-05-10T06:15:23.123Z,5.55
2019-05-10T06:20:24.378Z,5.60
2019-05-10T06:25:39.567Z,5.58
2019-05-10T06:30:33.246Z,5.50
2019-05-10T06:35:36.818Z,4.80
2019-05-10T06:40:46.890Z,5.00
2019-05-10T06:45:46.701Z,5.15
2019-05-10T06:50:51.001Z,5.17
2019-05-10T06:55:54.563Z,5.05
2019-05-10T07:00:58.151Z,4.65
2019-05-10T07:06:01.703Z,5.00
2019-05-10T07:11:05.669Z,4.40
2019-05-10T07:16:09.220Z,4.62
2019-05-10T07:21:12.786Z,4.73
2019-05-10T07:26:22.902Z,4.70
2019-05-10T07:31:23.604Z,3.85
2019-05-10T07:36:30.539Z,4.17
2019-05-10T07:41:32.278Z,4.22
2019-05-10T07:46:40.237Z,4.37
2019-05-10T07:51:41.650Z,4.05
2019-05-10T07:56:47.803Z,4.05
2019-05-10T08:01:51.441Z,3.95
2019-05-10T08:06:54.982Z,3.98
2019-05-10T08:12:03.235Z,3.77
2019-05-10T08:17:06.266Z,3.60
2019-05-10T08:22:10.285Z,3.40
2019-05-10T08:27:14.757Z,3.85
2019-05-10T08:32:19.333Z,3.40
2019-05-10T08:37:33.094Z,3.58
2019-05-10T08:42:43.840Z,3.70
2019-05-10T08:47:34.764Z,3.60
2019-05-10T08:52:38.320Z,3.90
2019-05-10T08:57:44.351Z,3.60
2019-05-10T09:02:47.282Z,2.95
2019-05-10T09:07:52.067Z,3.05
2019-05-10T09:12:58.067Z,3.22
2019-05-10T09:18:04.310Z,3.12
2019-05-10T09:23:08.554Z,3.15
2019-05-10T09:28:16.808Z,2.70
2019-05-10T09:33:17.002Z,2.70
2019-05-10T09:38:22.134Z,2.90
2019-05-10T09:43:25.830Z,2.60
2019-05-10T09:48:28.513Z,2.50
2019-05-10T09:53:32.068Z,2.80
2019-05-10T09:58:38.501Z,2.40
2019-05-10T10:03:43.638Z,2.72
2019-05-10T10:08:49.291Z,1.85
2019-05-10T10:13:59.296Z,2.33
2019-05-10T10:18:57.401Z,2.07
2019-05-10T10:24:12.558Z,2.40
2019-05-10T10:29:07.377Z,2.37
2019-05-10T10:34:11.262Z,2.40
2019-05-10T10:39:16.911Z,2.60
2019-05-10T10:44:20.159Z,2.30
2019-05-10T10:49:28.063Z,2.00
2019-05-10T10:54:36.238Z,2.00
2019-05-10T10:59:34.329Z,2.10
2019-05-10T11:04:40.389Z,2.00
2019-05-10T11:09:43.201Z,2.08
2019-05-10T11:14:46.794Z,2.00
2019-05-10T11:19:50.342Z,1.67
2019-05-10T11:25:00.710Z,2.00
2019-05-10T11:30:00.878Z,2.08
2019-05-10T11:35:05.972Z,2.10
2019-05-10T11:40:11.329Z,1.50
2019-05-10T11:45:14.995Z,1.97
2019-05-10T11:55:23.904Z,1.70
2019-05-10T11:59:05.164Z,1.85
2019-05-10T12:05:32.855Z,1.57
2019-05-10T12:10:43.068Z,1.80
2019-05-10T12:15:43.175Z,1.50
2019-05-10T12:21:00.374Z,1.80
2019-05-10T12:26:03.776Z,1.80
2019-05-10T12:26:49.190Z,1.75
2019-05-10T12:30:57.968Z,1.52
2019-05-10T12:36:02.415Z,1.60
2019-05-10T12:41:06.299Z,1.40
2019-05-10T12:46:10.552Z,1.67
2019-05-10T12:51:16.220Z,1.40
2019-05-10T12:56:19.698Z,1.55
2019-05-10T13:01:25.785Z,2.55
2019-05-10T13:06:28.709Z,1.63
2019-05-10T13:11:32.617Z,1.40
2019-05-10T13:16:36.282Z,1.10
2019-05-10T13:21:39.855Z,2.08
2019-05-10T13:26:43.414Z,2.00
2019-05-10T13:31:47.037Z,1.92
2019-05-10T13:36:50.683Z,1.87
2019-05-10T13:41:57.303Z,2.58
2019-05-10T13:46:59.623Z,2.10
2019-05-10T13:52:03.172Z,1.60
2019-05-10T13:57:06.821Z,1.50
2019-05-10T14:02:10.352Z,2.00
2019-05-10T14:07:13.924Z,1.70
2019-05-10T14:12:23.244Z,1.70
2019-05-10T14:17:21.863Z,1.80
2019-05-10T14:22:25.420Z,2.15
2019-05-10T14:27:29.955Z,1.50
2019-05-10T14:32:34.298Z,1.52
2019-05-10T14:37:37.913Z,1.60
2019-05-10T14:42:41.520Z,1.60
2019-05-10T14:47:47.784Z,1.45
2019-05-10T14:52:50.505Z,1.55
2019-05-10T14:57:54.058Z,1.70
2019-05-10T15:03:02.001Z,1.70
2019-05-10T15:08:02.931Z,1.60
2019-05-10T15:13:06.500Z,1.30
2019-05-10T15:18:10.083Z,1.50
2019-05-10T15:23:13.769Z,1.57
2019-05-10T15:28:17.373Z,1.50
2019-05-10T15:33:21.132Z,1.42
2019-05-10T15:38:24.719Z,1.72
2019-05-10T15:43:28.310Z,1.30
2019-05-10T15:48:36.611Z,1.32
2019-05-10T15:53:37.567Z,1.42
2019-05-10T15:58:43.016Z,1.20
2019-05-10T16:03:47.613Z,1.40
2019-05-10T16:08:51.513Z,1.50
2019-05-10T16:13:59.949Z,1.62
2019-05-10T16:19:00.460Z,1.60
2019-05-10T16:24:05.015Z,1.45
2019-05-10T16:29:08.658Z,1.50
2019-05-10T16:34:12.219Z,1.50
2019-05-10T16:39:15.805Z,1.52
2019-05-10T16:44:21.022Z,1.50
2019-05-10T16:49:25.968Z,1.60
2019-05-10T16:54:30.470Z,1.70
2019-05-10T16:59:35.746Z,1.70
2019-05-10T17:04:39.927Z,1.40
2019-05-10T17:09:43.895Z,1.47
2019-05-10T17:14:50.623Z,1.40
2019-05-10T17:19:54.537Z,1.50
2019-05-10T17:25:03.486Z,1.85
2019-05-10T17:30:06.171Z,1.85
2019-05-10T17:35:10.416Z,1.54
2019-05-10T17:40:14.280Z,1.67
2019-05-10T17:45:18.985Z,1.70
2019-05-10T17:50:23.507Z,1.70
2019-05-10T17:55:27.733Z,1.72
2019-05-10T18:00:35.544Z,1.82
2019-05-10T18:05:44.544Z,1.72
2019-05-10T18:10:44.419Z,3.58
2019-05-10T18:15:48.010Z,4.40
2019-05-10T18:20:51.751Z,5.70
2019-05-10T18:25:58.640Z,5.60
2019-05-10T18:31:00.679Z,5.40
2019-05-10T18:36:04.805Z,5.28
2019-05-10T18:41:09.998Z,7.75
2019-05-10T18:46:13.721Z,8.33
2019-05-10T18:51:17.868Z,7.45
2019-05-10T18:56:25.308Z,7.20
2019-05-10T19:01:32.871Z,6.42
2019-05-10T19:06:33.226Z,6.90
2019-05-10T19:11:39.158Z,7.67
2019-05-10T19:16:42.124Z,7.75
2019-05-10T19:21:45.690Z,10.98
2019-05-10T19:26:49.258Z,13.10
2019-05-10T19:31:52.859Z,13.70
2019-05-10T19:36:56.738Z,15.38
2019-05-10T19:42:04.019Z,14.45
2019-05-10T19:47:05.765Z,13.27
2019-05-10T19:52:09.431Z,14.20
2019-05-10T19:57:16.379Z,15.18
2019-05-10T20:02:18.447Z,14.83
2019-05-10T20:07:21.987Z,14.43
2019-05-10T20:12:25.564Z,13.32
2019-05-10T20:17:29.302Z,12.75
2019-05-10T20:22:35.999Z,13.03
2019-05-10T20:27:38.581Z,11.60
2019-05-10T20:32:42.383Z,11.35
2019-05-10T20:38:00.641Z,16.20
2019-05-10T20:42:51.392Z,14.78
2019-05-10T20:47:54.979Z,14.68
2019-05-10T20:52:58.586Z,14.25
2019-05-10T20:58:02.170Z,14.10
2019-05-10T21:03:05.852Z,12.75
2019-05-10T21:08:16.980Z,12.30
2019-05-10T21:13:14.764Z,12.53
2019-05-10T21:18:18.346Z,12.47
2019-05-10T21:23:21.959Z,11.75
2019-05-10T21:28:25.528Z,13.65
2019-05-10T21:33:29.108Z,12.58
2019-05-10T21:38:33.674Z,12.75
2019-05-10T21:43:37.272Z,12.00
2019-05-10T21:48:40.892Z,12.13
2019-05-10T21:53:44.450Z,12.25
2019-05-10T21:58:48.037Z,10.78
2019-05-10T22:03:51.652Z,11.20
2019-05-10T22:08:55.481Z,11.20
2019-05-10T22:13:59.087Z,10.60
2019-05-10T22:19:03.204Z,10.55
2019-05-10T22:24:06.885Z,10.05
2019-05-10T22:29:10.453Z,9.88
2019-05-10T22:34:14.036Z,10.10
2019-05-10T22:39:17.601Z,9.68
2019-05-10T22:44:21.529Z,9.95
2019-05-10T22:49:25.102Z,9.10
2019-05-10T22:54:28.771Z,8.88
2019-05-10T22:59:32.337Z,8.83
2019-05-10T23:04:35.951Z,9.23
2019-05-10T23:09:39.657Z,8.03
2019-05-10T23:14:43.355Z,8.13
2019-05-10T23:19:47.032Z,7.60
2019-05-10T23:24:50.602Z,7.72
2019-05-10T23:29:54.177Z,7.70
2019-05-10T23:34:57.783Z,7.45
2019-05-10T23:40:01.344Z,7.20
2019-05-10T23:45:06.333Z,7.17
2019-05-10T23:50:09.942Z,6.97
2019-05-10T23:55:13.535Z,7.15
